Time;durP1;ratioP1;P1;durP2;ratioP2;P2;SDS_P1;SDS_P2;PMS_P1;PMS_P2;Temp;Humidity;BMP_temperature;BMP_pressure;BME280_temperature;BME280_humidity;BME280_pressure;Samples;Min_cycle;Max_cycle;Signal;HPM_P1;HPM_P2
2022/05/20 00:00:06;;;;;;;6.60;4.60;;;;;;;10.12;100.00;100014.19;6250417;23;20035;-58
2022/05/20 00:02:54;;;;;;;11.27;4.32;;;;;;;10.15;100.00;100010.59;6250512;23;20109;-59
2022/05/20 00:05:39;;;;;;;5.72;4.05;;;;;;;10.14;100.00;100024.75;6215948;23;20061;-66
2022/05/20 00:08:24;;;;;;;7.20;4.65;;;;;;;10.06;100.00;100018.69;6250264;23;20030;-59
2022/05/20 00:11:09;;;;;;;5.97;4.07;;;;;;;10.05;100.00;100019.56;6247798;23;20042;-58
2022/05/20 00:13:54;;;;;;;6.18;4.45;;;;;;;10.09;100.00;100011.56;6250395;23;20031;-60
2022/05/20 00:16:38;;;;;;;6.05;4.20;;;;;;;10.03;100.00;100008.09;6239554;23;20468;-57
2022/05/20 00:19:22;;;;;;;6.15;4.68;;;;;;;10.04;100.00;100017.81;6217301;23;20034;-59
2022/05/20 00:22:07;;;;;;;5.55;4.28;;;;;;;10.01;100.00;100018.72;6250533;23;20091;-58
2022/05/20 00:27:54;;;;;;;5.75;3.50;;;;;;;10.02;100.00;100024.91;6238887;23;20094;-58
2022/05/20 00:30:39;;;;;;;4.93;3.78;;;;;;;10.04;100.00;100028.41;6248419;23;20031;-58
2022/05/20 00:33:25;;;;;;;5.30;3.45;;;;;;;10.00;100.00;100032.00;6225099;23;20026;-64
2022/05/20 00:36:10;;;;;;;5.32;3.58;;;;;;;9.99;100.00;100028.47;6249185;23;20409;-58
2022/05/20 00:38:55;;;;;;;3.53;2.88;;;;;;;9.81;100.00;100023.41;6223835;23;20419;-60
2022/05/20 00:41:39;;;;;;;5.25;2.85;;;;;;;9.46;100.00;99976.19;6239679;23;20520;-59
2022/05/20 00:44:25;;;;;;;4.50;3.03;;;;;;;9.85;100.00;100034.84;6238955;23;20100;-60
2022/05/20 00:47:13;;;;;;;6.18;2.80;;;;;;;9.78;100.00;100035.81;6195679;23;20369;-56
2022/05/20 00:50:02;;;;;;;4.03;2.83;;;;;;;9.77;100.00;100045.53;6216804;23;20102;-59
2022/05/20 00:52:49;;;;;;;5.43;2.85;;;;;;;9.67;100.00;100035.06;6215176;23;20133;-58
2022/05/20 00:55:35;;;;;;;7.15;2.55;;;;;;;9.72;100.00;100046.50;6206232;23;20027;-60
2022/05/20 01:02:48;;;;;;;3.45;2.20;;;;;;;9.64;100.00;100049.22;6251951;23;20046;-60
2022/05/20 01:05:39;;;;;;;5.07;2.55;;;;;;;9.72;100.00;100051.78;6222719;23;20103;-65
2022/05/20 01:08:34;;;;;;;4.63;2.42;;;;;;;9.71;100.00;100057.97;6241748;23;20074;-59
2022/05/20 01:11:19;;;;;;;4.55;2.38;;;;;;;9.42;100.00;100013.31;6241722;23;20031;-57
2022/05/20 01:14:03;;;;;;;4.43;2.38;;;;;;;9.62;100.00;100066.03;6250344;23;20031;-65
2022/05/20 01:16:48;;;;;;;4.75;2.10;;;;;;;9.51;100.00;100063.50;6228984;23;20070;-57
2022/05/20 01:19:41;;;;;;;2.85;2.33;;;;;;;9.50;100.00;100061.75;6239291;23;20031;-59
2022/05/20 01:22:48;;;;;;;4.32;2.70;;;;;;;9.42;100.00;100063.63;6241282;23;20031;-59
2022/05/20 01:25:33;;;;;;;4.13;2.17;;;;;;;9.16;100.00;100036.53;6251567;23;20067;-60
2022/05/20 01:28:21;;;;;;;5.40;2.10;;;;;;;9.39;100.00;100064.50;6207496;23;20894;-58
2022/05/20 01:31:14;;;;;;;3.45;2.28;;;;;;;9.51;100.00;100074.94;6197283;23;20027;-57
2022/05/20 01:33:59;;;;;;;2.72;1.85;;;;;;;9.43;100.00;100084.75;6240097;23;20089;-60
2022/05/20 01:36:43;;;;;;;3.13;1.90;;;;;;;9.24;100.00;100045.25;6238135;23;20103;-58
2022/05/20 01:39:28;;;;;;;2.00;1.80;;;;;;;9.28;100.00;100060.22;6239445;23;20062;-60
2022/05/20 01:42:28;;;;;;;3.28;1.80;;;;;;;9.53;100.00;100093.47;6249704;23;20023;-59
2022/05/20 01:45:22;;;;;;;3.15;1.70;;;;;;;9.51;100.00;100100.56;6223935;23;20030;-59
2022/05/20 01:48:27;;;;;;;3.20;1.80;;;;;;;9.44;100.00;100099.75;6249035;23;20054;-60
2022/05/20 01:51:14;;;;;;;2.47;1.50;;;;;;;9.39;100.00;100105.97;6241069;23;20357;-58
2022/05/20 01:54:07;;;;;;;3.85;1.67;;;;;;;9.42;100.00;100103.31;6241428;23;20725;-57
2022/05/20 01:57:03;;;;;;;2.42;1.40;;;;;;;9.27;100.00;100075.19;6238794;23;20031;-64
2022/05/20 01:59:52;;;;;;;3.55;2.00;;;;;;;9.20;100.00;100070.00;6197177;23;20151;-57
2022/05/20 02:02:57;;;;;;;7.05;2.83;;;;;;;9.41;100.00;100112.13;6241248;23;20120;-58
2022/05/20 02:05:55;;;;;;;6.20;3.77;;;;;;;9.36;100.00;100120.13;6218376;23;20226;-57
2022/05/20 02:08:44;;;;;;;3.70;2.53;;;;;;;9.31;100.00;100121.91;6238562;23;20086;-59
2022/05/20 02:11:43;;;;;;;5.03;1.70;;;;;;;9.33;100.00;100124.53;6240881;23;20035;-59
2022/05/20 02:15:03;;;;;;;2.38;1.42;;;;;;;9.29;100.00;100125.47;6251390;23;20075;-58
2022/05/20 02:17:54;;;;;;;2.42;1.30;;;;;;;9.09;100.00;100096.56;6148321;23;20032;-58
2022/05/20 02:20:48;;;;;;;2.28;1.40;;;;;;;9.33;100.00;100135.13;6136714;23;20561;-60
2022/05/20 02:23:40;;;;;;;1.70;1.33;;;;;;;9.16;100.00;100110.59;6155005;23;20064;-69
2022/05/20 02:26:28;;;;;;;4.03;1.30;;;;;;;9.29;100.00;100138.69;6156270;23;20060;-60
2022/05/20 02:29:23;;;;;;;4.55;1.50;;;;;;;9.41;100.00;100144.75;6155620;23;20056;-59
2022/05/20 02:32:18;;;;;;;4.68;1.70;;;;;;;9.44;100.00;100144.75;6144537;23;20452;-60
2022/05/20 02:35:03;;;;;;;3.13;1.30;;;;;;;9.37;100.00;100145.69;6156233;23;20135;-59
2022/05/20 02:37:48;;;;;;;2.50;1.48;;;;;;;9.41;100.00;100139.47;6157552;23;20092;-60
2022/05/20 02:40:32;;;;;;;3.10;1.52;;;;;;;9.29;100.00;100120.19;6148393;23;20072;-58
2022/05/20 02:43:18;;;;;;;2.13;1.53;;;;;;;9.51;100.00;100151.72;6147980;23;20045;-59
2022/05/20 02:46:03;;;;;;;3.00;1.38;;;;;;;9.41;100.00;100160.66;6124670;23;20096;-67
2022/05/20 02:48:47;;;;;;;3.20;1.30;;;;;;;9.41;100.00;100157.09;6136938;23;20399;-60
2022/05/20 02:51:32;;;;;;;2.53;1.48;;;;;;;9.35;100.00;100154.53;6193412;23;20058;-58
2022/05/20 02:54:16;;;;;;;2.60;1.60;;;;;;;9.23;100.00;100160.78;6240718;23;20067;-60
2022/05/20 02:57:01;;;;;;;2.45;1.40;;;;;;;9.17;100.00;100146.75;6250283;23;20320;-58
2022/05/20 03:05:51;;;;;;;2.13;1.30;;;;;;;9.06;100.00;100154.78;6242848;23;20031;-61
2022/05/20 03:08:36;;;;;;;4.80;1.50;;;;;;;9.05;100.00;100160.97;6239293;23;20417;-63
2022/05/20 03:11:20;;;;;;;2.20;1.50;;;;;;;9.01;100.00;100168.91;6250812;23;20031;-59
2022/05/20 03:14:04;;;;;;;6.07;1.90;;;;;;;8.72;100.00;100118.03;6227314;23;20030;-59
2022/05/20 03:16:50;;;;;;;2.85;1.20;;;;;;;8.93;100.00;100170.75;6250560;23;20089;-60
2022/05/20 03:19:35;;;;;;;2.53;1.45;;;;;;;8.97;100.00;100178.66;6217207;23;20031;-61
2022/05/20 03:22:19;;;;;;;1.65;1.17;;;;;;;8.90;100.00;100171.66;6174635;23;20444;-59
2022/05/20 03:25:05;;;;;;;4.03;1.40;;;;;;;8.96;100.00;100168.97;6250607;23;20042;-57
2022/05/20 03:27:50;;;;;;;3.38;1.35;;;;;;;9.04;100.00;100182.13;6238167;23;20103;-59
2022/05/20 03:30:34;;;;;;;;;;;;;;;9.03;100.00;100191.81;6241008;23;20063;-60
2022/05/20 03:33:18;;;;;;;1.70;1.05;;;;;;;8.97;100.00;100191.00;6239068;23;19922;-59
2022/05/20 03:36:04;;;;;;;6.47;1.20;;;;;;;9.06;100.00;100194.44;6240677;23;20103;-59
2022/05/20 03:38:49;;;;;;;2.35;1.20;;;;;;;9.09;100.00;100183.84;6229856;23;20342;-59
2022/05/20 03:41:34;;;;;;;3.33;1.10;;;;;;;9.13;100.00;100203.22;6228706;23;20121;-58
2022/05/20 03:44:19;;;;;;;1.95;1.10;;;;;;;9.04;100.00;100182.13;6240337;23;20031;-59
2022/05/20 03:47:03;;;;;;;2.20;1.17;;;;;;;9.16;100.00;100216.44;6225551;23;20107;-59
2022/05/20 03:49:48;;;;;;;4.05;1.00;;;;;;;9.10;100.00;100211.19;6250377;23;20051;-60
2022/05/20 03:52:32;;;;;;;3.72;1.00;;;;;;;9.12;100.00;100225.28;6249168;23;20031;-58
2022/05/20 03:55:17;;;;;;;2.47;1.15;;;;;;;8.94;100.00;100201.56;6250267;23;20474;-59
2022/05/20 03:58:02;;;;;;;2.00;0.98;;;;;;;9.07;100.00;100220.00;6217302;23;20030;-59
2022/05/20 04:03:49;;;;;;;1.40;1.00;;;;;;;8.89;100.00;100182.22;6237553;23;20026;-59
2022/05/20 04:06:34;;;;;;;1.92;1.10;;;;;;;9.22;100.00;100237.56;6247689;23;20326;-60
2022/05/20 04:09:19;;;;;;;1.90;1.05;;;;;;;9.03;100.00;100202.41;6217056;23;20366;-59
2022/05/20 04:12:07;;;;;;;3.08;1.20;;;;;;;9.31;100.00;100237.47;6249743;23;20030;-58
2022/05/20 04:14:53;;;;;;;4.00;1.50;;;;;;;9.34;100.00;100237.47;6222464;23;20047;-63
2022/05/20 04:17:38;;;;;;;2.00;1.27;;;;;;;9.25;100.00;100221.63;6192751;23;20504;-61
2022/05/20 04:20:23;;;;;;;3.05;1.33;;;;;;;9.10;100.00;100200.63;6223870;23;20280;-58
2022/05/20 04:23:07;;;;;;;2.15;1.30;;;;;;;9.25;100.00;100243.69;6237630;23;20162;-62
2022/05/20 04:25:52;;;;;;;2.28;1.20;;;;;;;9.30;100.00;100256.91;6247398;23;20031;-60
2022/05/20 04:28:36;;;;;;;4.60;1.45;;;;;;;9.24;100.00;100231.38;6246588;23;20111;-73
2022/05/20 04:31:21;;;;;;;2.85;1.35;;;;;;;9.46;100.00;100251.47;6247428;23;20100;-62
2022/05/20 04:34:05;;;;;;;2.03;1.10;;;;;;;9.64;100.00;100249.59;6212215;23;20415;-60
2022/05/20 04:36:50;;;;;;;2.20;1.03;;;;;;;9.79;100.00;100250.31;6249272;23;20268;-61
2022/05/20 04:39:34;;;;;;;3.67;1.10;;;;;;;9.84;100.00;100229.94;6216875;23;20309;-58
2022/05/20 04:48:25;;;;;;;1.52;1.27;;;;;;;9.91;100.00;100270.50;6251475;23;20042;-58
2022/05/20 04:51:09;;;;;;;4.25;1.35;;;;;;;9.99;100.00;100266.88;6238896;23;20046;-61
2022/05/20 04:56:56;;;;;;;2.28;1.00;;;;;;;10.03;100.00;100278.31;6218383;23;20107;-62
2022/05/20 04:59:41;;;;;;;3.25;1.17;;;;;;;9.84;100.00;100237.91;6249222;23;20135;-74
2022/05/20 05:02:26;;;;;;;2.55;1.33;;;;;;;10.14;100.00;100263.25;6197266;23;20481;-61
2022/05/20 05:05:14;;;;;;;2.20;0.98;;;;;;;10.25;100.00;100269.31;6249018;23;20027;-62
2022/05/20 05:07:58;;;;;;;4.38;1.20;;;;;;;10.12;100.00;100228.81;6240046;23;20110;-62
2022/05/20 05:10:44;;;;;;;2.03;1.05;;;;;;;10.23;100.00;100234.88;6248681;23;20708;-59
2022/05/20 05:13:29;;;;;;;2.05;0.85;;;;;;;10.56;100.00;100265.41;6238153;23;20035;-78
2022/05/20 05:16:13;;;;;;;3.22;1.17;;;;;;;10.43;100.00;100227.56;6238594;23;20085;-60
2022/05/20 05:18:58;;;;;;;4.15;1.40;;;;;;;10.73;100.00;100261.66;6246514;23;20528;-58
2022/05/20 05:21:42;;;;;;;2.40;0.90;;;;;;;10.71;100.00;100265.22;6238777;23;20031;-61
2022/05/20 05:24:27;;;;;;;1.65;0.80;;;;;;;10.83;100.00;100265.03;6245432;23;20030;-62
2022/05/20 05:27:11;;;;;;;2.30;0.90;;;;;;;10.94;100.00;100274.63;6236176;23;20103;-61
2022/05/20 05:29:56;;;;;;;2.03;0.90;;;;;;;10.94;100.00;100265.78;6192392;23;20111;-61
2022/05/20 05:32:42;;;;;;;5.15;1.10;;;;;;;10.99;100.00;100266.63;6246690;23;20447;-63
2022/05/20 05:35:31;;;;;;;2.45;0.88;;;;;;;10.89;100.00;100262.31;6241191;23;20114;-60
2022/05/20 05:38:15;;;;;;;1.95;0.80;;;;;;;10.93;100.00;100262.28;6234344;23;20051;-60
2022/05/20 05:40:59;;;;;;;2.05;0.90;;;;;;;10.96;100.00;100264.00;6226824;23;20421;-60
2022/05/20 05:43:44;;;;;;;2.92;0.80;;;;;;;11.02;100.00;100262.16;6250099;23;20473;-57
2022/05/20 05:46:28;;;;;;;2.35;0.65;;;;;;;10.88;100.00;100263.22;6250926;23;20035;-60
2022/05/20 05:49:13;;;;;;;3.70;0.80;;;;;;;10.85;97.83;100276.53;6251056;23;20104;-60
2022/05/20 05:51:57;;;;;;;1.70;0.80;;;;;;;10.70;97.99;100276.72;6251219;23;20059;-59
2022/05/20 05:54:41;;;;;;;1.00;0.80;;;;;;;10.65;97.86;100282.09;6251277;23;20075;-61
2022/05/20 05:57:25;;;;;;;1.67;0.70;;;;;;;10.58;100.00;100275.09;6215712;23;20152;-74
2022/05/20 06:00:12;;;;;;;1.75;0.52;;;;;;;10.52;98.87;100275.16;6240930;23;20306;-62
2022/05/20 06:02:59;;;;;;;1.48;0.77;;;;;;;10.34;100.00;100232.97;6249486;23;20027;-59
2022/05/20 06:05:44;;;;;;;0.70;0.70;;;;;;;10.37;98.56;100270.06;6251810;23;20314;-60
2022/05/20 06:08:29;;;;;;;3.90;0.80;;;;;;;10.40;100.00;100277.09;6218073;23;20481;-60
2022/05/20 06:11:14;;;;;;;1.20;0.73;;;;;;;10.44;100.00;100266.44;6250587;23;20031;-67
2022/05/20 06:13:58;;;;;;;4.05;1.00;;;;;;;10.54;100.00;100275.16;6250560;23;20059;-59
2022/05/20 06:16:43;;;;;;;2.67;1.00;;;;;;;10.51;100.00;100275.19;6238221;23;20512;-61
2022/05/20 06:19:29;;;;;;;3.05;0.93;;;;;;;10.54;100.00;100277.81;6217768;23;20086;-58
2022/05/20 06:22:13;;;;;;;1.40;0.73;;;;;;;10.51;100.00;100275.19;6225869;23;20026;-60
2022/05/20 06:24:58;;;;;;;0.98;0.75;;;;;;;10.27;100.00;100238.34;6240416;23;20078;-59
2022/05/20 06:27:45;;;;;;;3.80;0.60;;;;;;;10.52;95.86;100282.25;6240221;23;20450;-61
2022/05/20 06:30:30;;;;;;;1.90;0.50;;;;;;;10.63;91.06;100289.19;6249617;23;20090;-61
2022/05/20 06:33:14;;;;;;;1.55;0.70;;;;;;;10.62;90.83;100287.44;6227905;23;20027;-60
2022/05/20 06:42:06;;;;;;;1.10;0.75;;;;;;;10.60;91.69;100283.06;6240526;23;20059;-58
2022/05/20 06:44:53;;;;;;;1.85;0.70;;;;;;;10.47;92.80;100287.59;6217533;23;20058;-60
2022/05/20 06:47:37;;;;;;;0.88;0.75;;;;;;;10.57;97.94;100268.06;6247488;23;20027;-63
2022/05/20 06:50:21;;;;;;;1.55;0.80;;;;;;;10.73;94.83;100284.66;6248324;23;20103;-58
2022/05/20 06:53:07;;;;;;;3.30;0.80;;;;;;;10.60;92.97;100270.66;6246223;23;20059;-59
2022/05/20 06:55:51;;;;;;;1.27;0.73;;;;;;;10.64;93.89;100258.25;6205013;23;20071;-59
2022/05/20 06:58:37;;;;;;;1.70;0.98;;;;;;;10.83;90.66;100279.19;6239190;23;20448;-59
2022/05/20 07:01:22;;;;;;;0.73;0.63;;;;;;;10.98;91.24;100291.38;6227483;23;20031;-60
2022/05/20 07:04:07;;;;;;;5.90;0.90;;;;;;;11.34;89.07;100296.19;6250836;23;20027;-60
2022/05/20 07:06:52;;;;;;;2.40;0.80;;;;;;;11.66;85.56;100278.00;6249974;23;20082;-62
2022/05/20 07:09:38;;;;;;;1.63;0.70;;;;;;;12.03;80.48;100290.63;6250739;23;20408;-61
2022/05/20 07:12:22;;;;;;;1.75;0.70;;;;;;;12.51;76.88;100291.53;6248217;23;20034;-61
2022/05/20 07:15:07;;;;;;;1.50;0.95;;;;;;;12.83;73.87;100252.72;6206417;23;20077;-61
2022/05/20 07:17:52;;;;;;;1.05;0.55;;;;;;;13.26;68.19;100292.63;6239323;23;20031;-61
2022/05/20 07:20:36;;;;;;;3.13;0.80;;;;;;;13.42;69.17;100289.56;6250864;23;20054;-60
2022/05/20 07:23:24;;;;;;;2.50;0.60;;;;;;;13.65;68.23;100291.69;6250705;23;20473;-60
2022/05/20 07:26:09;;;;;;;1.70;0.80;;;;;;;13.86;67.39;100288.50;6215728;23;20031;-70
2022/05/20 07:28:53;;;;;;;2.40;1.15;;;;;;;14.35;64.67;100301.50;6239900;23;20104;-61
2022/05/20 07:31:38;;;;;;;3.83;1.05;;;;;;;14.81;63.02;100310.84;6238064;23;20066;-59
2022/05/20 07:34:22;;;;;;;1.83;1.08;;;;;;;15.03;61.71;100274.56;6229166;23;20031;-57
2022/05/20 07:37:07;;;;;;;2.83;0.77;;;;;;;15.72;56.49;100301.81;6241463;23;20027;-60
2022/05/20 07:39:51;;;;;;;2.25;1.63;;;;;;;16.20;56.98;100318.03;6251089;23;20034;-60
2022/05/20 07:42:36;;;;;;;2.05;0.80;;;;;;;16.43;50.05;100276.22;6241899;23;20154;-59
2022/05/20 07:45:20;;;;;;;1.88;0.50;;;;;;;16.85;48.60;100306.78;6249816;23;20483;-70
2022/05/20 07:48:05;;;;;;;0.55;0.40;;;;;;;17.37;45.80;100294.97;6249893;23;20166;-58
2022/05/20 07:50:59;;;;;;;1.85;0.68;;;;;;;18.27;42.60;100326.13;6214453;23;20426;-62
2022/05/20 07:53:52;;;;;;;2.38;0.80;;;;;;;19.23;42.72;100321.84;6226668;23;20123;-61
2022/05/20 07:56:41;;;;;;;1.85;0.80;;;;;;;19.86;40.03;100326.84;6250092;23;20485;-59
2022/05/20 07:59:30;;;;;;;6.57;0.77;;;;;;;20.22;36.53;100325.06;6193754;23;20034;-62
2022/05/20 08:02:19;;;;;;;1.00;0.60;;;;;;;20.64;33.34;100330.09;6250647;23;20082;-58
2022/05/20 08:05:04;;;;;;;1.23;0.90;;;;;;;21.31;32.54;100341.75;6250496;23;20027;-60
2022/05/20 08:07:51;;;;;;;1.67;1.33;;;;;;;21.83;34.41;100314.50;6238814;23;20043;-68
2022/05/20 08:10:36;;;;;;;8.13;2.15;;;;;;;22.85;32.34;100337.25;6216775;23;20365;-60
2022/05/20 08:13:21;;;;;;;2.10;0.75;;;;;;;23.39;28.66;100338.41;6247685;23;20370;-59
2022/05/20 08:16:06;;;;;;;3.95;0.70;;;;;;;24.02;27.35;100340.56;6217071;23;20508;-59
2022/05/20 08:18:52;;;;;;;1.15;0.50;;;;;;;24.67;25.05;100323.47;6249969;23;20171;-62
2022/05/20 08:21:36;;;;;;;0.70;0.60;;;;;;;25.55;23.76;100340.69;6249749;23;20072;-62
2022/05/20 08:24:21;;;;;;;1.50;0.55;;;;;;;24.98;23.07;100338.50;6249178;23;20023;-61
2022/05/20 08:27:05;;;;;;;0.60;0.50;;;;;;;24.40;23.00;100341.59;6224864;23;20027;-65
2022/05/20 08:29:51;;;;;;;3.63;1.88;;;;;;;24.01;22.85;100314.44;6226646;23;20027;-61
2022/05/20 08:32:36;;;;;;;0.85;0.52;;;;;;;24.86;22.50;100331.22;6247307;23;20078;-60
2022/05/20 08:35:22;;;;;;;1.48;0.80;;;;;;;26.16;21.94;100318.06;6227144;23;20072;-62
2022/05/20 08:38:06;;;;;;;0.73;0.60;;;;;;;26.95;20.44;100340.94;6216579;23;21042;-61
2022/05/20 08:40:51;;;;;;;7.03;4.22;;;;;;;27.95;20.41;100345.50;6249363;23;20086;-61
2022/05/20 08:43:38;;;;;;;2.90;2.08;;;;;;;28.20;19.05;100328.00;6248944;23;20058;-61
2022/05/20 08:46:24;;;;;;;0.98;0.90;;;;;;;28.78;18.36;100339.34;6213879;23;20118;-67
2022/05/20 08:49:18;;;;;;;0.82;0.60;;;;;;;28.69;17.68;100336.53;6249362;23;20035;-62
2022/05/20 08:52:02;;;;;;;1.90;0.68;;;;;;;28.20;18.40;100325.28;6216680;23;20090;-62
2022/05/20 08:54:47;;;;;;;1.02;0.80;;;;;;;28.53;17.85;100317.88;6239195;23;20106;-64
2022/05/20 08:57:33;;;;;;;2.90;2.40;;;;;;;29.66;16.96;100337.91;6216539;23;20532;-62
2022/05/20 09:00:19;;;;;;;7.60;4.60;;;;;;;30.10;16.23;100337.50;6236952;23;20035;-62
2022/05/20 09:03:06;;;;;;;0.98;0.80;;;;;;;30.86;14.41;100342.25;6239441;23;20063;-61
2022/05/20 09:06:04;;;;;;;1.38;0.90;;;;;;;32.17;14.71;100338.44;6238565;23;20054;-62
2022/05/20 09:09:11;;;;;;;1.55;0.90;;;;;;;32.25;14.98;100306.44;6236206;23;20035;-63
2022/05/20 09:11:57;;;;;;;2.28;1.00;;;;;;;32.42;15.04;100334.97;6248953;23;20370;-63
2022/05/20 09:17:59;;;;;;;2.38;0.70;;;;;;;31.44;14.51;100328.31;6249294;23;20106;-61
2022/05/20 09:20:46;;;;;;;2.05;0.60;;;;;;;31.84;14.41;100328.91;6246663;23;20031;-64
2022/05/20 09:23:32;;;;;;;3.75;0.60;;;;;;;32.39;15.19;100303.19;6251244;23;20063;-61
2022/05/20 09:26:22;;;;;;;0.75;0.50;;;;;;;33.01;14.38;100325.09;6228550;23;20047;-64
2022/05/20 09:29:10;;;;;;;1.52;0.52;;;;;;;33.54;13.17;100322.25;6248994;23;20104;-67
2022/05/20 09:32:04;;;;;;;1.27;0.60;;;;;;;34.10;13.18;100313.41;6218245;23;20027;-61
2022/05/20 09:34:58;;;;;;;2.95;1.48;;;;;;;33.96;13.41;100283.75;6240770;23;20480;-62
2022/05/20 09:37:44;;;;;;;3.58;0.60;;;;;;;32.67;13.21;100323.22;6248482;23;20087;-63
2022/05/20 09:40:47;;;;;;;1.70;0.60;;;;;;;33.45;13.17;100309.44;6251320;23;20480;-62
2022/05/20 09:43:38;;;;;;;2.13;0.68;;;;;;;33.72;13.95;100320.25;6251199;23;20111;-63
2022/05/20 09:46:51;;;;;;;0.68;0.68;;;;;;;34.98;13.44;100325.50;6238482;23;20469;-62
2022/05/20 09:49:52;;;;;;;1.05;0.70;;;;;;;34.48;12.21;100315.63;6225225;23;20425;-62
2022/05/20 09:52:39;;;;;;;1.25;0.70;;;;;;;34.18;12.77;100295.03;6174228;23;20106;-63
2022/05/20 09:55:38;;;;;;;2.53;0.90;;;;;;;34.41;12.98;100304.38;6176074;23;20074;-61
2022/05/20 09:58:28;;;;;;;1.25;0.70;;;;;;;35.22;11.99;100310.81;6250623;23;20031;-61
2022/05/20 10:01:17;;;;;;;5.82;1.00;;;;;;;35.35;12.64;100316.72;6237929;23;20350;-68
2022/05/20 10:04:06;;;;;;;0.50;0.50;;;;;;;34.96;12.45;100312.94;6250697;23;20378;-61
2022/05/20 10:06:57;;;;;;;1.80;0.80;;;;;;;34.96;12.19;100294.47;6250567;23;20698;-62
2022/05/20 10:09:58;;;;;;;1.92;0.82;;;;;;;35.82;12.12;100306.59;6239839;23;20027;-65
2022/05/20 10:12:48;;;;;;;0.70;0.60;;;;;;;35.93;12.91;100298.78;6240720;23;20063;-63
2022/05/20 10:15:42;;;;;;;1.23;0.68;;;;;;;35.94;11.26;100294.13;6250517;23;20078;-64
2022/05/20 10:18:55;;;;;;;2.65;0.90;;;;;;;35.31;11.85;100290.53;6194373;23;20461;-61
2022/05/20 10:22:04;;;;;;;2.22;0.80;;;;;;;35.01;12.45;100293.97;6248428;23;20054;-62
2022/05/20 10:25:01;;;;;;;2.80;0.77;;;;;;;33.74;12.80;100287.09;6225912;23;20031;-62
2022/05/20 10:28:12;;;;;;;2.40;1.27;;;;;;;34.06;12.17;100274.34;6240229;23;20517;-62
2022/05/20 10:34:02;;;;;;;1.48;0.77;;;;;;;33.18;11.98;100241.72;6239880;23;20409;-62
2022/05/20 10:37:07;;;;;;;1.13;1.02;;;;;;;34.19;12.45;100279.34;6240453;23;20074;-62
2022/05/20 10:40:33;;;;;;;0.80;0.77;;;;;;;34.59;12.28;100262.91;6224891;23;20027;-62
2022/05/20 10:50:24;;;;;;;4.07;1.17;;;;;;;33.21;13.88;100265.25;6157276;23;20380;-61
2022/05/20 10:53:29;;;;;;;1.25;0.60;;;;;;;32.64;13.24;100250.19;6147277;23;20522;-62
2022/05/20 10:56:53;;;;;;;1.75;0.60;;;;;;;31.19;13.52;100256.81;6147626;23;20032;-62
2022/05/20 10:59:59;;;;;;;0.73;0.60;;;;;;;30.95;13.86;100251.84;6144964;23;20040;-60
2022/05/20 11:03:13;;;;;;;0.38;0.38;;;;;;;30.06;13.73;100245.75;6126424;23;20079;-60
2022/05/20 11:06:22;;;;;;;1.00;0.70;;;;;;;30.39;14.31;100245.41;6156571;23;20404;-62
2022/05/20 11:09:26;;;;;;;2.33;1.08;;;;;;;30.00;14.74;100240.00;6127246;23;20073;-62
2022/05/20 11:12:26;;;;;;;0.88;0.70;;;;;;;29.69;14.29;100239.22;6117416;23;20061;-61
2022/05/20 11:15:45;;;;;;;1.25;0.60;;;;;;;29.22;15.18;100232.53;6126240;23;20111;-62
2022/05/20 11:19:03;;;;;;;4.63;1.00;;;;;;;29.14;15.33;100228.75;6122336;23;20404;-61
2022/05/20 11:21:53;;;;;;;2.60;0.90;;;;;;;28.57;15.93;100210.16;6163003;23;20048;-61
2022/05/20 11:25:00;;;;;;;0.75;0.60;;;;;;;28.31;16.31;100221.53;6161300;23;20032;-63
2022/05/20 11:28:21;;;;;;;1.52;0.50;;;;;;;27.97;17.89;100220.81;6184146;23;20027;-69
2022/05/20 11:31:08;;;;;;;0.82;0.60;;;;;;;27.36;16.54;100205.06;6172597;23;20056;-61
2022/05/20 11:34:12;;;;;;;1.38;0.90;;;;;;;26.52;17.91;100211.00;6182313;23;20035;-61
2022/05/20 11:37:20;;;;;;;2.40;1.33;;;;;;;26.59;19.65;100220.47;6163689;23;20032;-63
2022/05/20 11:40:24;;;;;;;3.92;2.92;;;;;;;26.06;18.71;100210.13;6174869;23;20031;-61
2022/05/20 11:43:39;;;;;;;1.73;0.70;;;;;;;25.05;18.64;100199.56;6153847;23;20059;-62
2022/05/20 11:47:00;;;;;;;1.38;0.80;;;;;;;24.94;20.18;100194.03;6231775;23;20055;-62
2022/05/20 11:50:16;;;;;;;4.57;1.50;;;;;;;24.90;21.35;100192.50;6214890;23;20071;-63
2022/05/20 11:53:04;;;;;;;1.08;0.80;;;;;;;24.35;20.46;100172.06;6193872;23;20031;-62
2022/05/20 11:56:07;;;;;;;1.20;0.65;;;;;;;24.21;20.65;100178.44;6247214;23;20027;-62
2022/05/20 11:59:17;;;;;;;1.30;0.70;;;;;;;24.03;21.02;100177.00;6201571;23;20074;-63
2022/05/20 12:02:07;;;;;;;0.60;0.50;;;;;;;24.20;21.75;100165.00;6212768;23;20038;-68
2022/05/20 12:04:53;;;;;;;1.15;0.50;;;;;;;24.34;21.11;100165.78;6247365;23;20042;-62
2022/05/20 12:07:39;;;;;;;4.38;0.60;;;;;;;24.31;21.33;100171.41;6214382;23;20476;-63
2022/05/20 12:10:43;;;;;;;0.65;0.40;;;;;;;24.52;21.47;100174.47;6248023;23;20035;-61
2022/05/20 12:13:28;;;;;;;3.38;0.70;;;;;;;24.14;20.80;100152.75;6237499;23;20533;-69
2022/05/20 12:16:15;;;;;;;1.73;1.17;;;;;;;23.77;21.38;100158.06;6248136;23;20062;-62
2022/05/20 12:25:36;;;;;;;1.02;0.40;;;;;;;23.49;20.09;100150.03;6237311;23;20102;-62
2022/05/20 12:28:21;;;;;;;0.95;0.70;;;;;;;23.46;21.86;100155.66;6214315;23;20097;-62
2022/05/20 12:31:12;;;;;;;2.15;1.33;;;;;;;22.99;22.01;100147.91;6245725;23;20058;-61
2022/05/20 12:34:10;;;;;;;1.20;0.63;;;;;;;22.89;20.88;100148.56;6248155;23;20105;-62
2022/05/20 12:36:54;;;;;;;2.72;0.70;;;;;;;22.72;21.01;100117.22;6225245;23;20426;-64
2022/05/20 12:39:52;;;;;;;1.20;0.60;;;;;;;22.30;20.94;100138.81;6235903;23;20481;-64
2022/05/20 12:42:46;;;;;;;4.13;0.70;;;;;;;22.04;21.68;100121.47;6235700;23;20405;-69
2022/05/20 12:45:54;;;;;;;1.67;0.50;;;;;;;21.82;21.93;100131.88;6247955;23;20322;-64
2022/05/20 12:48:39;;;;;;;0.80;0.60;;;;;;;21.45;22.92;100129.53;6239491;23;20509;-63
2022/05/20 12:51:23;;;;;;;1.75;0.80;;;;;;;21.39;24.26;100094.84;6248287;23;20097;-63
2022/05/20 12:54:20;;;;;;;0.90;0.70;;;;;;;21.98;23.38;100120.16;6249768;23;20489;-61
2022/05/20 12:57:18;;;;;;;2.70;0.50;;;;;;;21.98;22.53;100117.44;6240630;23;20093;-63
2022/05/20 13:00:12;;;;;;;1.95;0.60;;;;;;;22.15;23.30;100119.97;6241165;23;20082;-62
2022/05/20 13:03:28;;;;;;;1.40;0.80;;;;;;;21.96;23.65;100106.72;6225643;23;20058;-66
2022/05/20 13:06:20;;;;;;;2.53;0.60;;;;;;;21.73;23.57;100107.25;6247518;23;20027;-62
2022/05/20 13:09:08;;;;;;;4.50;1.80;;;;;;;21.46;24.20;100090.84;6249688;23;20026;-62
2022/05/20 13:11:52;;;;;;;2.15;1.00;;;;;;;21.35;25.86;100106.78;6249645;23;20030;-61
2022/05/20 13:14:37;;;;;;;1.65;0.80;;;;;;;21.51;25.74;100091.41;6247602;23;20022;-68
2022/05/20 13:17:23;;;;;;;3.42;0.93;;;;;;;21.96;25.03;100101.34;6226451;23;20082;-61
2022/05/20 13:20:10;;;;;;;1.10;0.70;;;;;;;21.69;25.63;100095.72;6246738;23;20147;-62
2022/05/20 13:23:03;;;;;;;2.45;0.60;;;;;;;21.68;24.17;100099.38;6216861;23;20473;-63
2022/05/20 13:25:47;;;;;;;2.92;0.65;;;;;;;21.41;24.29;100090.22;6247782;23;20074;-63
2022/05/20 13:28:36;;;;;;;0.80;0.70;;;;;;;21.41;25.25;100092.91;6194879;23;20481;-68
2022/05/20 13:31:24;;;;;;;1.33;0.80;;;;;;;21.15;26.72;100092.69;6216270;23;20525;-61
2022/05/20 13:34:09;;;;;;;2.70;0.85;;;;;;;21.16;26.33;100097.16;6247030;23;20035;-62
2022/05/20 13:36:54;;;;;;;5.00;0.80;;;;;;;21.24;25.49;100089.50;6226076;23;20031;-64
2022/05/20 13:39:38;;;;;;;1.13;0.60;;;;;;;21.33;25.79;100095.19;6249372;23;20026;-62
2022/05/20 13:42:24;;;;;;;2.83;0.80;;;;;;;21.05;25.63;100091.50;6239167;23;20488;-63
2022/05/20 13:45:13;;;;;;;2.40;0.80;;;;;;;20.95;25.31;100083.06;6216800;23;20031;-62
2022/05/20 13:51:01;;;;;;;1.02;0.70;;;;;;;20.64;24.28;100061.47;6248249;23;20123;-69
2022/05/20 13:53:49;;;;;;;1.42;0.88;;;;;;;20.56;25.24;100054.75;6216867;23;20206;-62
2022/05/20 13:56:37;;;;;;;1.20;0.65;;;;;;;20.54;24.03;100062.94;6193760;23;20071;-61
2022/05/20 13:59:30;;;;;;;2.10;0.90;;;;;;;20.43;25.37;100061.78;6217561;23;20027;-63
2022/05/20 14:02:17;;;;;;;2.00;1.13;;;;;;;20.04;27.05;100069.31;6227727;23;20066;-62